createdAt,value
2019-03-17T00:01:57.656Z,16.03
2019-03-17T00:04:31.634Z,16.47
2019-03-17T00:07:02.025Z,15.57
2019-03-17T00:09:33.998Z,17.10
2019-03-17T00:12:05.940Z,15.97
2019-03-17T00:14:37.899Z,16.47
2019-03-17T00:17:09.597Z,16.07
2019-03-17T00:19:41.481Z,15.20
2019-03-17T00:22:13.231Z,16.67
2019-03-17T00:24:45.066Z,16.13
2019-03-17T00:27:16.732Z,16.23
2019-03-17T00:29:48.455Z,16.00
2019-03-17T00:32:20.285Z,16.07
2019-03-17T00:34:52.045Z,16.55
2019-03-17T00:37:23.846Z,17.17
2019-03-17T00:39:55.709Z,16.17
2019-03-17T00:42:27.791Z,16.63
2019-03-17T00:44:59.912Z,15.57
2019-03-17T00:47:32.741Z,15.93
2019-03-17T00:50:04.868Z,15.40
2019-03-17T00:52:36.646Z,16.10
2019-03-17T00:55:08.427Z,14.77
2019-03-17T00:57:41.357Z,15.90
2019-03-17T01:00:14.409Z,16.47
2019-03-17T01:02:47.287Z,15.50
2019-03-17T01:05:20.092Z,16.53
2019-03-17T01:07:52.000Z,15.47
2019-03-17T01:10:24.195Z,15.95
2019-03-17T01:12:56.094Z,16.00
2019-03-17T01:15:27.818Z,16.20
2019-03-17T01:18:00.223Z,15.83
2019-03-17T01:20:31.835Z,15.53
2019-03-17T01:23:03.785Z,15.37
2019-03-17T01:25:37.195Z,15.30
2019-03-17T01:28:09.297Z,15.27
2019-03-17T01:30:41.645Z,15.20
2019-03-17T01:33:13.678Z,14.10
2019-03-17T01:35:45.760Z,16.90
2019-03-17T01:38:17.431Z,15.40
2019-03-17T01:40:49.748Z,15.53
2019-03-17T01:43:21.703Z,16.97
2019-03-17T01:45:53.413Z,15.13
2019-03-17T01:48:25.239Z,16.03
2019-03-17T01:50:57.052Z,14.70
2019-03-17T01:53:28.780Z,14.30
2019-03-17T01:56:00.523Z,13.77
2019-03-17T01:58:34.767Z,14.03
2019-03-17T02:01:06.573Z,13.97
2019-03-17T02:03:38.361Z,13.30
2019-03-17T02:06:10.734Z,12.75
2019-03-17T02:08:42.693Z,14.35
2019-03-17T02:11:14.548Z,15.87
2019-03-17T02:13:46.318Z,15.37
2019-03-17T02:16:18.736Z,13.18
2019-03-17T02:18:50.509Z,13.97
2019-03-17T02:21:22.189Z,15.28
2019-03-17T02:23:54.325Z,14.47
2019-03-17T02:26:26.848Z,13.77
2019-03-17T02:29:00.051Z,13.87
2019-03-17T02:31:31.890Z,12.93
2019-03-17T02:34:03.701Z,12.43
2019-03-17T02:36:35.522Z,10.93
2019-03-17T02:39:07.808Z,11.47
2019-03-17T02:41:39.684Z,11.17
2019-03-17T02:44:11.471Z,12.07
2019-03-17T02:46:43.404Z,11.60
2019-03-17T02:49:15.307Z,11.70
2019-03-17T02:51:47.141Z,11.93
2019-03-17T02:54:19.547Z,11.67
2019-03-17T02:56:51.424Z,11.23
2019-03-17T02:59:24.583Z,11.68
2019-03-17T03:01:58.446Z,11.10
2019-03-17T03:04:30.175Z,10.60
2019-03-17T03:07:03.620Z,9.97
2019-03-17T03:09:35.420Z,9.80
2019-03-17T03:12:07.230Z,9.77
2019-03-17T03:14:39.011Z,10.63
2019-03-17T03:17:11.333Z,10.70
2019-03-17T03:19:43.172Z,10.53
2019-03-17T03:22:15.425Z,10.60
2019-03-17T03:24:47.538Z,10.70
2019-03-17T03:27:19.320Z,9.60
2019-03-17T03:29:51.411Z,10.37
2019-03-17T03:32:23.290Z,10.40
2019-03-17T03:34:55.669Z,10.40
2019-03-17T03:37:29.044Z,10.67
2019-03-17T03:40:00.803Z,10.83
2019-03-17T03:42:32.787Z,10.60
2019-03-17T03:45:05.452Z,8.90
2019-03-17T03:47:37.565Z,8.90
2019-03-17T03:50:09.443Z,9.07
2019-03-17T03:52:43.601Z,10.33
2019-03-17T03:55:16.526Z,9.90
2019-03-17T03:57:48.481Z,9.80
2019-03-17T04:00:20.342Z,11.33
2019-03-17T04:02:52.154Z,10.90
2019-03-17T04:05:24.059Z,11.00
2019-03-17T04:07:55.722Z,11.87
2019-03-17T04:10:27.670Z,11.83
2019-03-17T04:12:59.473Z,12.07
2019-03-17T04:15:31.253Z,12.13
2019-03-17T04:18:03.625Z,11.67
2019-03-17T04:20:35.512Z,12.40
2019-03-17T04:23:07.451Z,11.87
2019-03-17T04:25:39.172Z,12.57
2019-03-17T04:28:10.993Z,14.07
2019-03-17T04:30:43.123Z,12.10
2019-03-17T04:33:15.005Z,11.97
2019-03-17T04:35:46.906Z,11.43
2019-03-17T04:38:19.250Z,10.63
2019-03-17T04:40:51.050Z,11.30
2019-03-17T04:43:22.864Z,11.15
2019-03-17T04:45:54.867Z,11.60
2019-03-17T04:48:26.773Z,11.33
2019-03-17T04:50:58.847Z,10.63
2019-03-17T04:53:30.614Z,10.93
2019-03-17T04:56:02.566Z,11.10
2019-03-17T04:58:34.292Z,11.70
2019-03-17T05:01:05.960Z,11.03
2019-03-17T05:03:37.937Z,13.00
2019-03-17T05:06:10.915Z,13.38
2019-03-17T05:08:42.640Z,12.03
2019-03-17T05:11:14.779Z,12.93
2019-03-17T05:13:46.634Z,14.10
2019-03-17T05:16:18.380Z,11.85
2019-03-17T05:18:50.402Z,7.93
2019-03-17T05:21:22.841Z,9.20
2019-03-17T05:23:54.679Z,7.97
2019-03-17T05:26:26.442Z,7.90
2019-03-17T05:28:58.467Z,8.90
2019-03-17T05:31:30.261Z,8.13
2019-03-17T05:34:01.860Z,8.40
2019-03-17T05:36:33.740Z,9.13
2019-03-17T05:39:07.920Z,10.00
2019-03-17T05:41:39.712Z,9.83
2019-03-17T05:44:11.507Z,10.10
2019-03-17T05:46:44.137Z,12.53
2019-03-17T05:49:16.797Z,13.77
2019-03-17T05:51:48.582Z,11.33
2019-03-17T05:54:20.392Z,10.68
2019-03-17T05:56:52.038Z,11.50
2019-03-17T05:59:23.676Z,11.10
2019-03-17T06:01:55.708Z,9.77
2019-03-17T06:04:27.492Z,9.23
2019-03-17T06:06:59.260Z,10.53
2019-03-17T06:09:31.062Z,9.68
2019-03-17T06:12:05.448Z,10.10
2019-03-17T06:14:38.303Z,8.80
2019-03-17T06:17:09.972Z,8.53
2019-03-17T06:19:41.555Z,7.73
2019-03-17T06:22:13.477Z,7.10
2019-03-17T06:24:45.537Z,6.67
2019-03-17T06:27:17.332Z,6.12
2019-03-17T06:29:49.521Z,5.73
2019-03-17T06:32:22.375Z,5.30
2019-03-17T06:34:54.486Z,4.30
2019-03-17T06:37:31.182Z,4.17
2019-03-17T06:40:00.772Z,4.10
2019-03-17T06:42:32.591Z,4.00
2019-03-17T06:45:04.635Z,4.10
2019-03-17T06:47:36.271Z,4.17
2019-03-17T06:50:10.288Z,4.20
2019-03-17T06:52:42.291Z,3.80
2019-03-17T06:55:14.726Z,4.40
2019-03-17T06:57:46.695Z,4.00
2019-03-17T07:00:18.650Z,3.85
2019-03-17T07:02:51.675Z,3.80
2019-03-17T07:05:23.781Z,3.43
2019-03-17T07:07:55.411Z,3.70
2019-03-17T07:10:27.017Z,4.10
2019-03-17T07:12:59.128Z,4.03
2019-03-17T07:15:31.770Z,3.60
2019-03-17T07:18:03.818Z,3.33
2019-03-17T07:20:35.794Z,3.80
2019-03-17T07:23:08.541Z,3.23
2019-03-17T07:25:40.213Z,3.70
2019-03-17T07:28:12.351Z,3.43
2019-03-17T07:30:44.286Z,3.80
2019-03-17T07:33:15.930Z,3.47
2019-03-17T07:35:47.841Z,2.80
2019-03-17T07:38:19.787Z,3.40
2019-03-17T07:40:52.021Z,3.23
2019-03-17T07:43:26.087Z,2.75
2019-03-17T07:45:58.139Z,2.93
2019-03-17T07:48:29.843Z,2.60
2019-03-17T07:51:01.799Z,2.50
2019-03-17T07:53:33.974Z,2.70
2019-03-17T07:56:06.106Z,2.40
2019-03-17T07:58:39.172Z,2.53
2019-03-17T08:01:11.083Z,2.50
2019-03-17T08:03:44.953Z,2.53
2019-03-17T08:06:16.946Z,2.50
2019-03-17T08:08:49.094Z,2.77
2019-03-17T08:11:21.121Z,2.63
2019-03-17T08:13:53.133Z,3.00
2019-03-17T08:16:25.097Z,2.27
2019-03-17T08:18:56.771Z,2.67
2019-03-17T08:21:28.514Z,2.83
2019-03-17T08:24:00.366Z,2.47
2019-03-17T08:26:33.022Z,2.83
2019-03-17T08:29:05.982Z,2.62
2019-03-17T08:31:37.950Z,2.60
2019-03-17T08:34:09.857Z,3.23
2019-03-17T08:36:41.726Z,2.93
2019-03-17T08:39:14.018Z,2.30
2019-03-17T08:41:47.334Z,2.50
2019-03-17T08:44:19.579Z,2.40
2019-03-17T08:46:51.487Z,2.50
2019-03-17T08:49:23.251Z,2.08
2019-03-17T08:51:55.275Z,2.60
2019-03-17T08:54:26.952Z,2.60
2019-03-17T08:56:58.534Z,2.60
2019-03-17T08:59:30.992Z,2.10
2019-03-17T09:02:03.142Z,2.23
2019-03-17T09:04:34.879Z,2.47
2019-03-17T09:07:06.614Z,2.27
2019-03-17T09:09:38.348Z,2.40
2019-03-17T09:12:10.474Z,2.20
2019-03-17T09:14:42.549Z,2.27
2019-03-17T09:17:14.871Z,2.67
2019-03-17T09:19:46.910Z,2.13
2019-03-17T09:22:18.914Z,2.05
2019-03-17T09:24:50.847Z,2.33
2019-03-17T09:27:22.926Z,2.30
2019-03-17T09:29:55.279Z,2.40
2019-03-17T09:32:27.339Z,2.23
2019-03-17T09:34:59.137Z,2.47
2019-03-17T09:37:31.388Z,2.40
2019-03-17T09:40:03.075Z,2.40
2019-03-17T09:42:34.861Z,2.40
2019-03-17T09:45:07.265Z,2.30
2019-03-17T09:47:41.145Z,2.07
2019-03-17T09:50:12.876Z,2.40
2019-03-17T09:52:45.106Z,1.83
2019-03-17T09:55:17.622Z,1.80
2019-03-17T09:57:49.567Z,1.90
2019-03-17T10:00:21.656Z,2.17
2019-03-17T10:02:53.561Z,1.90
2019-03-17T10:05:26.045Z,2.10
2019-03-17T10:07:57.658Z,2.10
2019-03-17T10:10:29.684Z,2.30
2019-03-17T10:13:01.398Z,2.10
2019-03-17T10:15:33.126Z,2.00
2019-03-17T10:18:04.868Z,1.90
2019-03-17T10:20:36.649Z,2.20
2019-03-17T10:23:08.497Z,2.00
2019-03-17T10:25:42.347Z,1.83
2019-03-17T10:28:14.135Z,2.00
2019-03-17T10:30:45.916Z,2.17
2019-03-17T10:33:17.527Z,1.80
2019-03-17T10:35:50.381Z,2.17
2019-03-17T10:38:22.326Z,2.15
2019-03-17T10:40:54.208Z,1.93
2019-03-17T10:43:26.051Z,2.23
2019-03-17T10:45:58.183Z,1.77
2019-03-17T10:48:29.948Z,1.80
2019-03-17T10:51:02.336Z,2.00
2019-03-17T10:53:33.919Z,1.80
2019-03-17T10:56:07.348Z,2.00
2019-03-17T10:58:39.238Z,2.20
2019-03-17T11:01:11.471Z,2.20
2019-03-17T11:03:43.223Z,2.23
2019-03-17T11:06:15.251Z,1.90
2019-03-17T11:08:47.417Z,2.10
2019-03-17T11:11:19.477Z,2.00
2019-03-17T11:13:51.117Z,1.80
2019-03-17T11:16:22.976Z,2.00
2019-03-17T11:18:56.502Z,1.97
2019-03-17T11:21:30.807Z,1.90
2019-03-17T11:24:02.543Z,1.30
2019-03-17T11:26:34.377Z,1.97
2019-03-17T11:29:06.284Z,1.60
2019-03-17T11:31:38.133Z,1.80
2019-03-17T11:34:10.245Z,1.90
2019-03-17T11:36:42.054Z,1.57
2019-03-17T11:39:14.084Z,1.70
2019-03-17T11:41:45.937Z,1.80
2019-03-17T11:44:17.951Z,1.70
2019-03-17T11:46:51.367Z,1.60
2019-03-17T11:49:22.988Z,1.50
2019-03-17T11:51:55.148Z,1.60
2019-03-17T11:54:26.967Z,1.80
2019-03-17T11:56:59.612Z,1.90
2019-03-17T11:59:31.408Z,1.70
2019-03-17T12:02:03.766Z,1.60
2019-03-17T12:04:35.906Z,1.23
2019-03-17T12:07:07.766Z,1.50
2019-03-17T12:09:49.565Z,1.70
2019-03-17T12:12:14.527Z,1.50
2019-03-17T12:14:46.409Z,1.60
2019-03-17T12:17:18.240Z,1.30
2019-03-17T12:19:50.211Z,1.50
2019-03-17T12:22:22.110Z,1.55
2019-03-17T12:24:53.767Z,1.40
2019-03-17T12:27:27.489Z,1.40
2019-03-17T12:29:59.428Z,1.50
2019-03-17T12:32:31.256Z,1.57
2019-03-17T12:35:03.560Z,1.52
2019-03-17T12:37:36.382Z,1.40
2019-03-17T12:40:08.364Z,1.30
2019-03-17T12:42:41.929Z,1.75
2019-03-17T12:45:13.924Z,1.40
2019-03-17T12:47:47.737Z,1.67
2019-03-17T12:50:19.580Z,1.50
2019-03-17T12:52:51.374Z,1.37
2019-03-17T12:55:23.137Z,1.72
2019-03-17T12:57:55.135Z,1.20
2019-03-17T13:00:26.840Z,1.60
2019-03-17T13:02:59.674Z,1.60
2019-03-17T13:05:31.730Z,1.30
2019-03-17T13:08:03.543Z,1.62
2019-03-17T13:10:35.455Z,1.30
2019-03-17T13:13:07.680Z,1.60
2019-03-17T13:15:39.579Z,1.52
2019-03-17T13:18:11.317Z,1.57
2019-03-17T13:20:43.191Z,1.70
2019-03-17T13:23:15.389Z,1.50
2019-03-17T13:25:47.336Z,1.80
2019-03-17T13:28:19.041Z,1.67
2019-03-17T13:30:50.889Z,1.65
2019-03-17T13:33:22.596Z,1.70
2019-03-17T13:35:57.206Z,1.70
2019-03-17T13:38:28.936Z,1.70
2019-03-17T13:41:02.967Z,1.75
2019-03-17T13:43:34.940Z,1.40
2019-03-17T13:46:06.917Z,1.65
2019-03-17T13:48:38.689Z,1.70
2019-03-17T13:51:10.359Z,1.60
2019-03-17T13:53:42.180Z,1.80
2019-03-17T13:56:14.083Z,1.60
2019-03-17T13:58:48.420Z,1.92
2019-03-17T14:01:22.018Z,1.60
2019-03-17T14:03:55.048Z,1.65
2019-03-17T14:06:28.609Z,1.70
2019-03-17T14:09:00.579Z,1.60
2019-03-17T14:11:32.894Z,1.50
2019-03-17T14:14:04.816Z,1.62
2019-03-17T14:16:36.670Z,1.60
2019-03-17T14:19:08.388Z,1.47
2019-03-17T14:21:40.917Z,1.62
2019-03-17T14:24:12.940Z,1.52
2019-03-17T14:26:46.115Z,1.70
2019-03-17T14:29:18.733Z,1.50
2019-03-17T14:31:50.560Z,1.87
2019-03-17T14:34:22.399Z,1.40
2019-03-17T14:36:54.363Z,1.70
2019-03-17T14:39:26.507Z,1.70
2019-03-17T14:41:58.540Z,1.50
2019-03-17T14:44:30.315Z,1.60
2019-03-17T14:47:02.237Z,1.50
2019-03-17T14:49:34.089Z,1.72
2019-03-17T14:52:06.176Z,1.70
2019-03-17T14:54:38.198Z,1.80
2019-03-17T14:57:10.002Z,1.40
2019-03-17T14:59:41.836Z,1.57
2019-03-17T15:02:13.508Z,1.50
2019-03-17T15:04:45.357Z,1.55
2019-03-17T15:07:17.217Z,1.60
2019-03-17T15:09:49.003Z,1.70
2019-03-17T15:12:20.925Z,1.70
2019-03-17T15:14:52.570Z,1.47
2019-03-17T15:17:24.442Z,1.83
2019-03-17T15:19:56.070Z,1.67
2019-03-17T15:22:30.428Z,1.60
2019-03-17T15:25:01.844Z,1.80
2019-03-17T15:27:33.559Z,1.50
2019-03-17T15:30:06.843Z,1.60
2019-03-17T15:32:38.573Z,1.70
2019-03-17T15:35:11.938Z,1.70
2019-03-17T15:37:43.784Z,1.90
2019-03-17T15:40:15.795Z,1.90
2019-03-17T15:42:47.792Z,1.73
2019-03-17T15:45:19.904Z,1.90
2019-03-17T15:47:51.781Z,1.80
2019-03-17T15:50:23.657Z,1.80
2019-03-17T15:52:55.584Z,2.00
2019-03-17T15:55:27.368Z,2.20
2019-03-17T15:57:58.985Z,2.43
2019-03-17T16:00:30.918Z,2.43
2019-03-17T16:03:03.029Z,2.30
2019-03-17T16:05:35.217Z,2.10
2019-03-17T16:08:07.170Z,2.10
2019-03-17T16:10:39.143Z,2.30
2019-03-17T16:13:10.884Z,2.47
2019-03-17T16:15:42.615Z,2.27
2019-03-17T16:18:14.760Z,2.12
2019-03-17T16:20:46.454Z,1.90
2019-03-17T16:23:18.435Z,2.27
2019-03-17T16:25:50.733Z,1.90
2019-03-17T16:28:22.722Z,2.25
2019-03-17T16:30:54.743Z,2.20
2019-03-17T16:33:26.777Z,2.10
2019-03-17T16:35:58.905Z,2.03
2019-03-17T16:38:31.540Z,2.50
2019-03-17T16:41:03.398Z,2.33
2019-03-17T16:43:35.327Z,2.60
2019-03-17T16:46:07.122Z,2.50
2019-03-17T16:48:39.443Z,2.60
2019-03-17T16:51:11.267Z,2.40
2019-03-17T16:53:43.067Z,2.50
2019-03-17T16:56:15.026Z,2.47
2019-03-17T16:58:46.999Z,2.80
2019-03-17T17:01:19.850Z,2.60
2019-03-17T17:03:51.782Z,2.70
2019-03-17T17:06:23.780Z,2.70
2019-03-17T17:08:55.371Z,2.90
2019-03-17T17:11:27.063Z,2.90
2019-03-17T17:13:59.424Z,2.53
2019-03-17T17:16:31.285Z,2.90
2019-03-17T17:19:03.312Z,2.90
2019-03-17T17:21:36.111Z,2.80
2019-03-17T17:24:09.885Z,2.80
2019-03-17T17:26:42.073Z,3.03
2019-03-17T17:29:14.153Z,2.85
2019-03-17T17:31:45.891Z,2.67
2019-03-17T17:34:18.204Z,2.80
2019-03-17T17:36:50.033Z,3.10
2019-03-17T17:39:21.945Z,3.90
2019-03-17T17:41:54.005Z,3.73
2019-03-17T17:44:25.666Z,3.67
2019-03-17T17:46:58.328Z,3.67
2019-03-17T17:49:30.351Z,4.30
2019-03-17T17:52:03.622Z,4.30
2019-03-17T17:54:35.626Z,4.50
2019-03-17T17:57:07.737Z,4.47
2019-03-17T17:59:39.450Z,4.40
2019-03-17T18:02:11.404Z,4.30
2019-03-17T18:04:43.322Z,4.47
2019-03-17T18:07:15.389Z,4.08
2019-03-17T18:09:47.169Z,4.40
2019-03-17T18:12:21.172Z,4.23
2019-03-17T18:14:52.176Z,4.20
2019-03-17T18:17:24.023Z,4.80
2019-03-17T18:19:56.850Z,4.50
2019-03-17T18:22:28.454Z,4.20
2019-03-17T18:25:00.313Z,4.87
2019-03-17T18:27:32.002Z,5.28
2019-03-17T18:30:03.870Z,5.30
2019-03-17T18:32:38.399Z,5.60
2019-03-17T18:35:10.373Z,5.70
2019-03-17T18:37:42.647Z,5.70
2019-03-17T18:40:15.286Z,5.22
2019-03-17T18:42:47.101Z,5.37
2019-03-17T18:45:19.598Z,4.97
2019-03-17T18:47:52.149Z,5.00
2019-03-17T18:50:25.461Z,5.40
2019-03-17T18:52:57.390Z,5.77
2019-03-17T18:55:29.375Z,6.27
2019-03-17T18:58:01.418Z,5.13
2019-03-17T19:00:33.572Z,5.73
2019-03-17T19:03:06.139Z,5.67
2019-03-17T19:05:38.998Z,6.43
2019-03-17T19:08:10.841Z,5.70
2019-03-17T19:10:43.019Z,5.60
2019-03-17T19:13:16.297Z,5.70
2019-03-17T19:15:48.134Z,6.07
2019-03-17T19:18:19.883Z,5.97
2019-03-17T19:20:52.868Z,6.43
2019-03-17T19:23:26.872Z,6.03
2019-03-17T19:26:00.407Z,5.87
2019-03-17T19:28:32.214Z,6.33
2019-03-17T19:31:06.397Z,6.17
2019-03-17T19:33:38.402Z,5.93
2019-03-17T19:36:10.206Z,6.00
2019-03-17T19:38:41.926Z,6.57
2019-03-17T19:41:13.908Z,6.60
2019-03-17T19:43:45.649Z,6.80
2019-03-17T19:46:18.586Z,8.20
2019-03-17T19:48:50.751Z,8.10
2019-03-17T19:51:22.469Z,8.38
2019-03-17T19:53:54.162Z,8.17
2019-03-17T19:56:25.859Z,8.33
2019-03-17T19:58:57.538Z,8.77
2019-03-17T20:01:29.939Z,8.70
2019-03-17T20:04:02.124Z,8.93
2019-03-17T20:06:34.049Z,8.17
2019-03-17T20:09:08.141Z,8.68
2019-03-17T20:11:39.805Z,8.60
2019-03-17T20:14:11.704Z,8.50
2019-03-17T20:16:43.387Z,8.33
2019-03-17T20:19:15.044Z,8.87
2019-03-17T20:21:46.880Z,8.23
2019-03-17T20:24:18.779Z,8.48
2019-03-17T20:26:50.434Z,8.70
2019-03-17T20:29:22.345Z,9.10
2019-03-17T20:31:53.950Z,9.77
2019-03-17T20:34:26.765Z,8.93
2019-03-17T20:36:58.366Z,9.53
2019-03-17T20:39:30.193Z,9.73
2019-03-17T20:42:02.090Z,10.20
2019-03-17T20:44:34.296Z,10.38
2019-03-17T20:47:06.339Z,10.60
2019-03-17T20:49:39.417Z,16.05
2019-03-17T20:52:11.319Z,26.70
2019-03-17T20:54:43.195Z,24.50
2019-03-17T20:57:15.100Z,20.77
2019-03-17T20:59:46.966Z,19.50
2019-03-17T21:02:20.289Z,17.73
2019-03-17T21:04:52.127Z,15.30
2019-03-17T21:07:24.309Z,14.97
2019-03-17T21:09:56.141Z,13.70
2019-03-17T21:12:27.842Z,10.73
2019-03-17T21:14:59.540Z,10.07
2019-03-17T21:17:31.343Z,11.23
2019-03-17T21:20:03.329Z,10.13
2019-03-17T21:22:35.251Z,10.63
2019-03-17T21:25:07.150Z,10.70
2019-03-17T21:27:38.977Z,11.10
2019-03-17T21:30:16.298Z,11.40
2019-03-17T21:32:48.520Z,11.43
2019-03-17T21:35:20.362Z,11.45
2019-03-17T21:37:52.085Z,11.63
2019-03-17T21:40:23.844Z,11.88
2019-03-17T21:42:55.695Z,12.27
2019-03-17T21:45:27.756Z,13.73
2019-03-17T21:47:59.513Z,14.77
2019-03-17T21:50:31.551Z,13.40
2019-03-17T21:53:03.510Z,12.77
2019-03-17T21:55:35.524Z,14.87
2019-03-17T21:58:08.471Z,14.40
2019-03-17T22:00:42.058Z,13.93
2019-03-17T22:03:19.615Z,15.80
2019-03-17T22:05:51.513Z,15.23
2019-03-17T22:08:23.249Z,15.30
2019-03-17T22:10:55.707Z,18.70
2019-03-17T22:13:27.814Z,22.07
2019-03-17T22:15:59.544Z,21.50
2019-03-17T22:18:33.182Z,21.27
2019-03-17T22:21:06.133Z,23.57
2019-03-17T22:23:38.177Z,23.17
2019-03-17T22:26:10.279Z,22.35
2019-03-17T22:28:42.294Z,23.20
2019-03-17T22:31:14.456Z,21.60
2019-03-17T22:33:46.724Z,21.20
2019-03-17T22:36:18.873Z,22.13
2019-03-17T22:38:51.126Z,19.25
2019-03-17T22:41:22.780Z,20.83
2019-03-17T22:43:54.669Z,19.77
2019-03-17T22:46:28.929Z,16.37
2019-03-17T22:49:00.775Z,15.03
2019-03-17T22:51:32.567Z,13.57
2019-03-17T22:54:04.618Z,14.50
2019-03-17T22:56:36.362Z,16.53
2019-03-17T22:59:08.275Z,18.53
2019-03-17T23:01:40.509Z,18.20
2019-03-17T23:04:13.132Z,18.93
2019-03-17T23:06:45.471Z,18.47
2019-03-17T23:09:18.239Z,17.67
2019-03-17T23:11:50.803Z,18.20
2019-03-17T23:14:35.845Z,16.93
2019-03-17T23:16:58.098Z,16.67
2019-03-17T23:19:32.318Z,18.87
2019-03-17T23:22:04.952Z,17.77
2019-03-17T23:24:37.411Z,18.45
2019-03-17T23:27:09.837Z,25.50
2019-03-17T23:29:42.417Z,19.93
2019-03-17T23:32:14.755Z,17.57
2019-03-17T23:34:47.391Z,16.80
2019-03-17T23:37:20.144Z,14.23
2019-03-17T23:39:52.490Z,10.00
2019-03-17T23:42:24.733Z,6.90
2019-03-17T23:44:57.151Z,7.03
2019-03-17T23:47:29.288Z,4.90
2019-03-17T23:50:01.604Z,3.62
2019-03-17T23:52:34.055Z,3.83
2019-03-17T23:55:07.266Z,3.30
2019-03-17T23:57:39.968Z,3.20
